Bucyrus, North Dakota
Current Conditions -  °F | °C
As of 9:53 AM on Friday 24 Oct 2014 (Local Time) from KHEI Reporting Station
Clear Clear  
Wind Chill: 62°   Ceiling: Unl
Heat Index: 62°   Visibility: 10mi
Dew Point: 37°   Wind: 14mph
Humidity: 39%   Direction: 300°WNW
Pressure: 29.98"   Gusts: NA
Location:  46.0942°N, 102.462°W
Report Text: KHEI 241553Z AUTO 30012KT 10SM CLR 17/03 A2998 RMK AO2 SLP148 T01670028
Loading
Personal Weather Stations






























Interactive Weather Map
Tropical Storm Tracking
New forecast layout! Learn more

10-Day Weather Forecast

Advertisements
Track Severe Weather on mobile